Aérodrome :
LOGIN :

S'inscrire | Disclaimer

   EN    FR    IT 

 










Légende :    VFR   VFR Marginal   IFR   IFR Intensif   IFR Très Intensif
Visi : 
Plafond : 
>= 8 km
>= 3000ft
5 à 8 km
1000 à 3000 ft
1500m à 5 km
500 à 1000 ft
800 à 1500m
200 à 500 ft
< 800m
< 200 ft
Symboles :   Orages  Brouillard  Fortes neiges  Fortes précipitations  Vent > 20 kt
SIGMETs :   Divers  Orages  Givrage  Turbulence  Onde Orograph.  Cendres Volcan.






- Altitude de l'aérodrome : 74 ft
- Code IATA : LRH


LFBH - La Rochelle Ile de Ré

DERNIER METAR :
  • 220400Z AUTO 09007KT CAVOK 08/07 Q1022 TEMPO 0600 FG VV///

METARs EXPIRÉS :
  • 220330Z AUTO 09007KT CAVOK 08/07 Q1021 TEMPO 0600 FG VV///
  • 220300Z AUTO 10006KT CAVOK 08/07 Q1021 TEMPO 0600 FG VV///
  • 220230Z AUTO 07007KT CAVOK 08/08 Q1021 TEMPO 0600 FG VV///
  • 220200Z AUTO 08008KT CAVOK 09/08 Q1022 TEMPO 0600 FG VV///
  • 220130Z AUTO 10007KT CAVOK 08/07 Q1022 TEMPO 0600 FG VV///

TAF TAF LFBH
Valide du 22 à 00h jusqu'au 23 à 00h UTC


212300Z 2200/2224 10007KT CAVOK
TEMPO 2200/2210 3000 BR
PROB40 2202/2208 0600 FG VV///
BECMG 2208/2210 04010KT
PROB40
TEMPO 2208/2210 BKN005
TEMPO 2215/2220 05015G25KT 4000 -RA BKN010
ATIS : +33 5 46 00 13 92



MET'MAP, la Météo Aéronautique d'un coup d'oeil ! - Copyright ORBIFLY Décembre 2007 - Disclaimer

ORBIFLY MET'MAP TEAM :

Programmation & Développement : Alexandra Zaïnal
Conception & Développement : Baudouin d'Aumeries
Co-Programmation & Développement : Marc-Olivier Méhu
Soutien technique & logistique : Manuel Goepfert

Contact : metmap@orbifly.com




SOURCES & CREDITS :

   NOAA